createdAt,value
2023-02-07T00:03:13.592Z,61.18
2023-02-07T00:08:16.465Z,62.26
2023-02-07T00:13:19.005Z,62.13
2023-02-07T00:18:21.476Z,60.62
2023-02-07T00:23:23.921Z,61.62
2023-02-07T00:28:26.708Z,60.95
2023-02-07T00:33:29.236Z,61.38
2023-02-07T00:38:32.084Z,62.10
2023-02-07T00:43:35.007Z,62.00
2023-02-07T00:48:39.636Z,62.01
2023-02-07T00:53:45.179Z,62.51
2023-02-07T00:58:49.512Z,61.35
2023-02-07T01:03:53.702Z,62.44
2023-02-07T01:09:00.644Z,63.26
2023-02-07T01:14:05.948Z,62.58
2023-02-07T01:19:10.768Z,61.89
2023-02-07T01:24:13.429Z,62.99
2023-02-07T01:29:16.362Z,63.64
2023-02-07T01:34:18.861Z,63.67
2023-02-07T01:39:22.592Z,63.29
2023-02-07T01:44:24.979Z,63.56
2023-02-07T01:49:31.921Z,62.33
2023-02-07T01:54:36.884Z,63.12
2023-02-07T01:59:44.182Z,63.70
2023-02-07T02:04:46.869Z,62.47
2023-02-07T02:09:49.320Z,62.42
2023-02-07T02:15:10.368Z,62.53
2023-02-07T02:20:54.433Z,63.36
2023-02-07T02:25:58.210Z,63.58
2023-02-07T02:31:00.654Z,63.38
2023-02-07T02:36:05.679Z,62.10
2023-02-07T02:41:35.676Z,61.75
2023-02-07T02:46:41.762Z,62.43
2023-02-07T02:51:44.755Z,63.12
2023-02-07T02:56:48.232Z,63.08
2023-02-07T03:02:26.380Z,61.57
2023-02-07T03:08:06.284Z,61.87
2023-02-07T03:13:30.430Z,62.17
2023-02-07T03:18:53.981Z,63.35
2023-02-07T03:23:59.624Z,61.76
2023-02-07T03:29:06.600Z,62.56
2023-02-07T03:34:16.783Z,62.68
2023-02-07T03:39:19.514Z,63.00
2023-02-07T03:44:25.694Z,63.13
2023-02-07T03:49:28.202Z,62.61
2023-02-07T03:54:30.661Z,62.08
2023-02-07T03:59:33.244Z,62.48
2023-02-07T04:04:36.492Z,62.89
2023-02-07T04:09:38.815Z,61.78
2023-02-07T04:14:41.292Z,62.21
2023-02-07T04:19:43.731Z,63.18
2023-02-07T04:24:46.775Z,62.78
2023-02-07T04:29:49.241Z,62.69
2023-02-07T04:34:51.576Z,62.24
2023-02-07T04:39:54.024Z,61.88
2023-02-07T04:44:56.462Z,62.24
2023-02-07T04:49:58.890Z,63.11
2023-02-07T04:55:01.333Z,62.34
2023-02-07T05:00:04.895Z,63.34
2023-02-07T05:05:08.045Z,62.24
2023-02-07T05:10:10.673Z,62.23
2023-02-07T05:15:13.051Z,62.06
2023-02-07T05:20:15.622Z,62.14
2023-02-07T05:25:18.475Z,61.11
2023-02-07T05:30:21.469Z,61.24
2023-02-07T05:35:23.958Z,60.36
2023-02-07T05:40:26.409Z,59.17
2023-02-07T05:45:29.156Z,57.78
2023-02-07T05:50:32.044Z,56.96
2023-02-07T05:55:41.590Z,55.66
2023-02-07T06:00:44.244Z,56.36
2023-02-07T06:05:46.652Z,55.01
2023-02-07T06:10:49.840Z,54.62
2023-02-07T06:15:53.349Z,54.54
2023-02-07T06:20:56.423Z,53.38
2023-02-07T06:25:58.829Z,51.20
2023-02-07T06:31:01.436Z,51.11
2023-02-07T06:36:04.293Z,49.37
2023-02-07T06:41:11.226Z,48.77
2023-02-07T06:46:13.962Z,48.13
2023-02-07T06:51:16.517Z,46.97
2023-02-07T06:56:19.079Z,46.41
2023-02-07T07:01:22.660Z,45.18
2023-02-07T07:06:25.194Z,44.46
2023-02-07T07:11:27.646Z,44.54
2023-02-07T07:16:30.138Z,44.45
2023-02-07T07:21:32.941Z,43.57
2023-02-07T07:26:48.437Z,43.11
2023-02-07T07:31:52.154Z,42.61
2023-02-07T07:36:57.008Z,42.42
2023-02-07T07:41:59.901Z,40.84
2023-02-07T07:47:20.982Z,40.36
2023-02-07T07:52:23.563Z,40.17
2023-02-07T07:57:28.478Z,41.18
2023-02-07T08:02:30.928Z,41.31
2023-02-07T08:07:33.495Z,41.34
2023-02-07T08:12:36.075Z,40.76
2023-02-07T08:17:38.612Z,41.22
2023-02-07T08:22:41.185Z,39.18
2023-02-07T08:27:43.847Z,38.62
2023-02-07T08:32:47.400Z,38.06
2023-02-07T08:37:50.521Z,37.38
2023-02-07T08:42:53.181Z,38.14
2023-02-07T08:47:55.654Z,37.42
2023-02-07T08:52:58.312Z,37.93
2023-02-07T08:58:00.749Z,36.63
2023-02-07T09:03:04.515Z,36.37
2023-02-07T09:08:07.128Z,35.66
2023-02-07T09:13:09.700Z,35.37
2023-02-07T09:18:12.209Z,34.27
2023-02-07T09:23:20.576Z,34.05
2023-02-07T09:28:23.254Z,33.18
2023-02-07T09:33:26.278Z,34.00
2023-02-07T09:38:29.024Z,34.37
2023-02-07T09:44:00.317Z,33.89
2023-02-07T09:49:37.870Z,34.69
2023-02-07T09:54:44.027Z,34.75
2023-02-07T09:59:50.914Z,34.44
2023-02-07T10:04:59.180Z,35.47
2023-02-07T10:10:01.786Z,35.35
2023-02-07T10:15:20.165Z,35.27
2023-02-07T10:20:40.653Z,35.85
2023-02-07T10:26:12.019Z,34.79
2023-02-07T10:31:17.782Z,36.56
2023-02-07T10:36:20.765Z,38.33
2023-02-07T10:41:31.190Z,38.76
2023-02-07T10:46:35.849Z,39.88
2023-02-07T10:51:44.516Z,40.95
2023-02-07T10:56:49.024Z,41.52
2023-02-07T11:01:54.579Z,42.87
2023-02-07T11:07:00.783Z,43.41
2023-02-07T11:12:15.570Z,44.23
2023-02-07T11:17:22.059Z,43.78
2023-02-07T11:22:28.233Z,42.30
2023-02-07T11:27:41.307Z,42.02
2023-02-07T11:32:44.825Z,42.86
2023-02-07T11:37:49.512Z,42.47
2023-02-07T11:43:10.095Z,43.23
2023-02-07T11:48:31.225Z,44.53
2023-02-07T11:54:05.895Z,44.45
2023-02-07T11:59:18.595Z,46.05
2023-02-07T12:04:27.819Z,45.48
2023-02-07T12:09:40.092Z,46.11
2023-02-07T12:15:02.358Z,47.12
2023-02-07T12:20:29.334Z,47.50
2023-02-07T12:25:57.145Z,48.81
2023-02-07T12:31:06.574Z,50.07
2023-02-07T12:36:19.980Z,51.09
2023-02-07T12:41:41.383Z,51.77
2023-02-07T12:47:05.560Z,52.23
2023-02-07T12:52:46.262Z,52.70
2023-02-07T12:58:06.546Z,53.31
2023-02-07T13:03:33.291Z,54.00
2023-02-07T13:08:55.370Z,54.81
2023-02-07T13:14:09.553Z,55.25
2023-02-07T13:19:29.081Z,55.82
2023-02-07T13:24:33.384Z,56.10
2023-02-07T13:29:37.853Z,56.87
2023-02-07T13:34:46.624Z,56.69
2023-02-07T13:39:59.042Z,57.90
2023-02-07T13:45:21.524Z,59.00
2023-02-07T13:50:39.228Z,58.77
2023-02-07T13:55:43.746Z,59.92
2023-02-07T14:00:56.249Z,59.32
2023-02-07T14:06:17.287Z,59.92
2023-02-07T14:11:44.491Z,60.21
2023-02-07T14:16:56.280Z,61.11
2023-02-07T14:22:20.913Z,60.99
2023-02-07T14:27:34.864Z,61.57
2023-02-07T14:33:04.202Z,61.92
2023-02-07T14:38:06.959Z,61.96
2023-02-07T14:43:12.220Z,63.00
2023-02-07T14:48:42.355Z,63.19
2023-02-07T14:53:46.831Z,63.34
2023-02-07T14:58:52.088Z,63.44
2023-02-07T15:04:06.086Z,63.62
2023-02-07T15:09:18.585Z,63.45
2023-02-07T15:14:33.516Z,63.98
2023-02-07T15:19:42.438Z,63.86
2023-02-07T15:24:51.408Z,63.94
2023-02-07T15:30:03.602Z,63.83
2023-02-07T15:35:17.510Z,63.98
2023-02-07T15:40:25.601Z,64.02
2023-02-07T15:45:32.660Z,64.04
2023-02-07T15:50:41.925Z,63.95
2023-02-07T15:55:50.883Z,64.57
2023-02-07T16:00:53.703Z,64.07
2023-02-07T16:06:32.926Z,63.82
2023-02-07T16:11:40.250Z,64.22
2023-02-07T16:16:56.081Z,64.43
2023-02-07T16:21:58.411Z,63.84
2023-02-07T16:27:00.935Z,63.92
2023-02-07T16:32:04.663Z,63.75
2023-02-07T16:37:07.992Z,63.65
2023-02-07T16:42:15.436Z,64.22
2023-02-07T16:47:18.854Z,63.79
2023-02-07T16:52:21.361Z,64.26
2023-02-07T16:57:23.836Z,64.55
2023-02-07T17:02:26.362Z,64.02
2023-02-07T17:07:29.269Z,64.54
2023-02-07T17:12:31.734Z,63.90
2023-02-07T17:17:34.117Z,64.77
2023-02-07T17:22:36.550Z,64.73
2023-02-07T17:27:39.066Z,64.18
2023-02-07T17:32:41.533Z,64.71
2023-02-07T17:37:44.388Z,64.46
2023-02-07T17:42:47.153Z,64.52
2023-02-07T17:47:49.786Z,63.82
2023-02-07T17:52:52.274Z,64.20
2023-02-07T17:57:54.883Z,65.50
2023-02-07T18:02:57.353Z,64.88
2023-02-07T18:08:00.181Z,64.50
2023-02-07T18:13:02.971Z,66.16
2023-02-07T18:18:05.716Z,66.23
2023-02-07T18:23:08.274Z,64.76
2023-02-07T18:28:10.843Z,65.87
2023-02-07T18:33:14.333Z,65.26
2023-02-07T18:38:16.805Z,65.89
2023-02-07T18:43:19.328Z,65.70
2023-02-07T18:48:21.761Z,65.17
2023-02-07T18:53:24.345Z,65.70
2023-02-07T18:58:26.712Z,65.08
2023-02-07T19:03:29.105Z,65.75
2023-02-07T19:08:31.642Z,66.30
2023-02-07T19:13:35.538Z,66.44
2023-02-07T19:18:37.937Z,65.53
2023-02-07T19:23:41.139Z,65.10
2023-02-07T19:28:43.627Z,64.70
2023-02-07T19:33:50.909Z,65.61
2023-02-07T19:38:54.649Z,64.86
2023-02-07T19:43:57.995Z,65.11
2023-02-07T19:49:00.543Z,65.67
2023-02-07T19:54:03.517Z,64.76
2023-02-07T19:59:07.243Z,64.44
2023-02-07T20:04:09.725Z,64.67
2023-02-07T20:09:12.226Z,65.16
2023-02-07T20:14:14.739Z,64.55
2023-02-07T20:19:17.383Z,64.66
2023-02-07T20:24:19.818Z,64.56
2023-02-07T20:29:23.358Z,64.99
2023-02-07T20:34:25.890Z,65.42
2023-02-07T20:39:30.912Z,64.97
2023-02-07T20:44:33.559Z,64.79
2023-02-07T20:49:35.992Z,65.46
2023-02-07T20:54:38.452Z,64.61
2023-02-07T20:59:40.994Z,64.90
2023-02-07T21:04:43.603Z,65.10
2023-02-07T21:09:46.049Z,65.31
2023-02-07T21:14:48.663Z,65.22
2023-02-07T21:19:51.161Z,64.57
2023-02-07T21:24:53.572Z,64.88
2023-02-07T21:29:56.049Z,65.05
2023-02-07T21:34:58.474Z,65.08
2023-02-07T21:40:00.969Z,65.56
2023-02-07T21:45:04.465Z,65.29
2023-02-07T21:50:07.144Z,65.09
2023-02-07T21:55:09.743Z,64.95
2023-02-07T22:00:13.509Z,65.19
2023-02-07T22:05:16.213Z,65.16
2023-02-07T22:10:18.845Z,65.50
2023-02-07T22:15:21.272Z,65.63
2023-02-07T22:20:23.780Z,64.96
2023-02-07T22:25:26.280Z,65.84
2023-02-07T22:30:28.701Z,65.58
2023-02-07T22:35:36.894Z,65.20
2023-02-07T22:40:41.432Z,65.43
2023-02-07T22:45:46.465Z,65.22
2023-02-07T22:50:49.048Z,64.65
2023-02-07T22:55:51.535Z,64.78
2023-02-07T23:00:54.019Z,64.46
2023-02-07T23:05:56.646Z,64.55
2023-02-07T23:10:59.095Z,64.66
2023-02-07T23:16:01.632Z,64.51
2023-02-07T23:21:08.846Z,64.58
2023-02-07T23:26:14.394Z,65.07
2023-02-07T23:31:18.397Z,64.76
2023-02-07T23:36:21.125Z,64.04
2023-02-07T23:41:23.700Z,64.75
2023-02-07T23:46:27.325Z,64.69
2023-02-07T23:51:29.819Z,64.26
2023-02-07T23:56:32.596Z,64.22
